sensor_id;sensor_type;location;lat;lon;timestamp;pressure;altitude;pressure_sealevel;temperature;humidity
82187;BME280;71776;52.042;8.160;2023-07-29T00:01:34;100001.34;;;19.84;79.07
82187;BME280;71776;52.042;8.160;2023-07-29T00:04:01;100002.06;;;19.70;79.38
82187;BME280;71776;52.042;8.160;2023-07-29T00:06:27;99995.28;;;19.66;79.92
82187;BME280;71776;52.042;8.160;2023-07-29T00:08:53;100002.06;;;19.70;80.01
82187;BME280;71776;52.042;8.160;2023-07-29T00:11:18;99997.25;;;19.78;79.49
82187;BME280;71776;52.042;8.160;2023-07-29T00:13:44;100010.50;;;19.92;78.85
82187;BME280;71776;52.042;8.160;2023-07-29T00:16:09;100006.25;;;19.90;78.82
82187;BME280;71776;52.042;8.160;2023-07-29T00:18:35;100011.66;;;19.87;78.54
82187;BME280;71776;52.042;8.160;2023-07-29T00:21:02;100003.72;;;19.88;78.83
82187;BME280;71776;52.042;8.160;2023-07-29T00:23:29;100002.09;;;19.86;78.49
82187;BME280;71776;52.042;8.160;2023-07-29T00:26:12;99995.63;;;19.76;79.25
82187;BME280;71776;52.042;8.160;2023-07-29T00:28:38;99992.94;;;19.77;78.91
82187;BME280;71776;52.042;8.160;2023-07-29T00:31:03;99995.56;;;19.77;79.22
82187;BME280;71776;52.042;8.160;2023-07-29T00:33:29;99983.81;;;19.67;79.58
82187;BME280;71776;52.042;8.160;2023-07-29T00:35:54;99989.84;;;19.69;79.49
82187;BME280;71776;52.042;8.160;2023-07-29T00:38:21;99986.00;;;19.59;79.56
82187;BME280;71776;52.042;8.160;2023-07-29T00:40:47;99985.25;;;19.57;79.99
82187;BME280;71776;52.042;8.160;2023-07-29T00:43:13;99992.94;;;19.60;79.65
82187;BME280;71776;52.042;8.160;2023-07-29T00:45:39;99984.16;;;19.61;79.85
82187;BME280;71776;52.042;8.160;2023-07-29T00:48:05;99994.47;;;19.64;79.41
82187;BME280;71776;52.042;8.160;2023-07-29T00:50:32;99979.03;;;19.58;79.33
82187;BME280;71776;52.042;8.160;2023-07-29T00:52:58;99984.81;;;19.64;79.51
82187;BME280;71776;52.042;8.160;2023-07-29T00:55:24;99983.44;;;19.57;79.78
82187;BME280;71776;52.042;8.160;2023-07-29T00:57:50;99980.00;;;19.57;79.64
82187;BME280;71776;52.042;8.160;2023-07-29T01:00:16;99985.06;;;19.60;80.01
82187;BME280;71776;52.042;8.160;2023-07-29T01:02:42;99980.03;;;19.55;79.91
82187;BME280;71776;52.042;8.160;2023-07-29T01:05:08;99978.19;;;19.57;79.70
82187;BME280;71776;52.042;8.160;2023-07-29T01:07:39;99969.28;;;19.60;79.82
82187;BME280;71776;52.042;8.160;2023-07-29T01:10:17;99970.81;;;19.64;79.72
82187;BME280;71776;52.042;8.160;2023-07-29T01:12:49;99962.34;;;19.59;79.74
82187;BME280;71776;52.042;8.160;2023-07-29T01:15:19;99960.03;;;19.53;80.21
82187;BME280;71776;52.042;8.160;2023-07-29T01:17:47;99958.06;;;19.41;80.55
82187;BME280;71776;52.042;8.160;2023-07-29T01:20:15;99963.16;;;19.44;80.12
82187;BME280;71776;52.042;8.160;2023-07-29T01:22:41;99962.84;;;19.50;80.04
82187;BME280;71776;52.042;8.160;2023-07-29T01:25:09;99949.00;;;19.46;79.94
82187;BME280;71776;52.042;8.160;2023-07-29T01:27:34;99961.13;;;19.49;80.09
82187;BME280;71776;52.042;8.160;2023-07-29T01:30:00;99956.50;;;19.54;80.12
82187;BME280;71776;52.042;8.160;2023-07-29T01:32:32;99953.25;;;19.49;80.00
82187;BME280;71776;52.042;8.160;2023-07-29T01:35:10;99957.06;;;19.43;80.30
82187;BME280;71776;52.042;8.160;2023-07-29T01:37:38;99958.97;;;19.40;80.53
82187;BME280;71776;52.042;8.160;2023-07-29T01:40:09;99964.75;;;19.46;80.36
82187;BME280;71776;52.042;8.160;2023-07-29T01:42:35;99964.84;;;19.45;80.50
82187;BME280;71776;52.042;8.160;2023-07-29T01:45:02;99966.13;;;19.53;80.31
82187;BME280;71776;52.042;8.160;2023-07-29T01:47:27;99969.44;;;19.41;80.34
82187;BME280;71776;52.042;8.160;2023-07-29T01:49:53;99964.53;;;19.34;80.66
82187;BME280;71776;52.042;8.160;2023-07-29T01:52:18;99961.59;;;19.23;81.25
82187;BME280;71776;52.042;8.160;2023-07-29T01:55:05;99957.88;;;19.27;80.90
82187;BME280;71776;52.042;8.160;2023-07-29T01:57:32;99950.63;;;19.32;80.69
82187;BME280;71776;52.042;8.160;2023-07-29T01:59:58;99954.34;;;19.28;81.06
82187;BME280;71776;52.042;8.160;2023-07-29T02:02:24;99948.78;;;19.17;81.34
82187;BME280;71776;52.042;8.160;2023-07-29T02:04:49;99945.84;;;19.06;81.92
82187;BME280;71776;52.042;8.160;2023-07-29T02:07:15;99947.47;;;18.91;82.13
82187;BME280;71776;52.042;8.160;2023-07-29T02:09:40;99931.09;;;18.86;82.33
82187;BME280;71776;52.042;8.160;2023-07-29T02:12:06;99931.16;;;18.84;82.26
82187;BME280;71776;52.042;8.160;2023-07-29T02:14:33;99933.63;;;18.70;82.79
82187;BME280;71776;52.042;8.160;2023-07-29T02:16:59;99925.59;;;18.73;82.87
82187;BME280;71776;52.042;8.160;2023-07-29T02:19:26;99932.25;;;18.80;82.53
82187;BME280;71776;52.042;8.160;2023-07-29T02:21:52;99929.72;;;18.79;82.73
82187;BME280;71776;52.042;8.160;2023-07-29T02:24:17;99924.31;;;18.82;82.46
82187;BME280;71776;52.042;8.160;2023-07-29T02:26:43;99919.44;;;18.91;82.31
82187;BME280;71776;52.042;8.160;2023-07-29T02:29:08;99917.72;;;18.90;82.27
82187;BME280;71776;52.042;8.160;2023-07-29T02:31:35;99920.69;;;18.84;82.63
82187;BME280;71776;52.042;8.160;2023-07-29T02:34:01;99926.69;;;18.86;82.73
82187;BME280;71776;52.042;8.160;2023-07-29T02:36:27;99925.28;;;18.79;82.42
82187;BME280;71776;52.042;8.160;2023-07-29T02:38:53;99936.09;;;18.73;82.46
82187;BME280;71776;52.042;8.160;2023-07-29T02:41:19;99943.97;;;18.73;82.37
82187;BME280;71776;52.042;8.160;2023-07-29T02:43:48;99936.19;;;18.72;82.76
82187;BME280;71776;52.042;8.160;2023-07-29T02:46:13;99942.75;;;18.80;82.76
82187;BME280;71776;52.042;8.160;2023-07-29T02:48:41;99946.28;;;18.79;82.77
82187;BME280;71776;52.042;8.160;2023-07-29T02:51:07;99955.09;;;18.78;83.06
82187;BME280;71776;52.042;8.160;2023-07-29T02:53:32;99951.25;;;18.85;82.81
82187;BME280;71776;52.042;8.160;2023-07-29T02:55:58;99938.91;;;18.87;82.68
82187;BME280;71776;52.042;8.160;2023-07-29T02:58:23;99943.44;;;18.84;82.92
82187;BME280;71776;52.042;8.160;2023-07-29T03:00:48;99927.63;;;18.85;82.99
82187;BME280;71776;52.042;8.160;2023-07-29T03:03:14;99930.25;;;18.85;83.14
82187;BME280;71776;52.042;8.160;2023-07-29T03:05:41;99925.84;;;18.86;83.34
82187;BME280;71776;52.042;8.160;2023-07-29T03:08:06;99915.59;;;18.99;82.84
82187;BME280;71776;52.042;8.160;2023-07-29T03:10:34;99923.38;;;19.00;82.82
82187;BME280;71776;52.042;8.160;2023-07-29T03:13:00;99918.97;;;19.01;82.79
82187;BME280;71776;52.042;8.160;2023-07-29T03:15:25;99918.13;;;19.00;82.82
82187;BME280;71776;52.042;8.160;2023-07-29T03:17:51;99920.75;;;19.00;82.84
82187;BME280;71776;52.042;8.160;2023-07-29T03:20:17;99912.78;;;19.02;83.12
82187;BME280;71776;52.042;8.160;2023-07-29T03:22:43;99917.22;;;19.01;82.96
82187;BME280;71776;52.042;8.160;2023-07-29T03:25:09;99914.34;;;19.06;83.26
82187;BME280;71776;52.042;8.160;2023-07-29T03:27:35;99919.28;;;19.12;82.51
82187;BME280;71776;52.042;8.160;2023-07-29T03:30:00;99918.19;;;19.16;82.61
82187;BME280;71776;52.042;8.160;2023-07-29T03:32:27;99919.72;;;19.20;82.44
82187;BME280;71776;52.042;8.160;2023-07-29T03:34:52;99927.38;;;19.24;82.15
82187;BME280;71776;52.042;8.160;2023-07-29T03:37:18;99916.34;;;19.18;82.74
82187;BME280;71776;52.042;8.160;2023-07-29T03:39:44;99911.41;;;19.12;82.83
82187;BME280;71776;52.042;8.160;2023-07-29T03:42:10;99911.41;;;19.12;82.99
82187;BME280;71776;52.042;8.160;2023-07-29T03:44:35;99908.53;;;19.16;82.76
82187;BME280;71776;52.042;8.160;2023-07-29T03:47:01;99911.94;;;19.18;82.96
82187;BME280;71776;52.042;8.160;2023-07-29T03:49:26;99916.94;;;19.23;82.77
82187;BME280;71776;52.042;8.160;2023-07-29T03:51:52;99920.19;;;19.28;82.30
82187;BME280;71776;52.042;8.160;2023-07-29T03:54:17;99920.00;;;19.31;82.55
82187;BME280;71776;52.042;8.160;2023-07-29T03:56:44;99918.44;;;19.28;82.22
82187;BME280;71776;52.042;8.160;2023-07-29T03:59:24;99919.25;;;19.29;82.77
82187;BME280;71776;52.042;8.160;2023-07-29T04:01:49;99920.00;;;19.31;82.36
82187;BME280;71776;52.042;8.160;2023-07-29T04:04:15;99916.56;;;19.30;82.60
82187;BME280;71776;52.042;8.160;2023-07-29T04:06:40;99907.75;;;19.31;82.44
82187;BME280;71776;52.042;8.160;2023-07-29T04:09:06;99901.81;;;19.28;82.44
82187;BME280;71776;52.042;8.160;2023-07-29T04:11:31;99898.47;;;19.24;82.79
82187;BME280;71776;52.042;8.160;2023-07-29T04:13:58;99893.22;;;19.24;82.72
82187;BME280;71776;52.042;8.160;2023-07-29T04:16:24;99886.13;;;19.26;82.71
82187;BME280;71776;52.042;8.160;2023-07-29T04:18:49;99890.78;;;19.21;83.00
82187;BME280;71776;52.042;8.160;2023-07-29T04:21:15;99881.09;;;19.22;82.68
82187;BME280;71776;52.042;8.160;2023-07-29T04:23:40;99893.00;;;19.29;82.72
82187;BME280;71776;52.042;8.160;2023-07-29T04:26:06;99894.41;;;19.36;82.66
82187;BME280;71776;52.042;8.160;2023-07-29T04:28:31;99887.91;;;19.43;82.42
82187;BME280;71776;52.042;8.160;2023-07-29T04:30:58;99888.06;;;19.40;82.24
82187;BME280;71776;52.042;8.160;2023-07-29T04:33:24;99891.44;;;19.42;82.48
82187;BME280;71776;52.042;8.160;2023-07-29T04:35:49;99893.91;;;19.45;82.41
82187;BME280;71776;52.042;8.160;2023-07-29T04:38:15;99887.81;;;19.44;82.60
82187;BME280;71776;52.042;8.160;2023-07-29T04:40:41;99884.09;;;19.48;82.04
82187;BME280;71776;52.042;8.160;2023-07-29T04:43:06;99885.94;;;19.46;82.48
82187;BME280;71776;52.042;8.160;2023-07-29T04:45:32;99887.91;;;19.43;82.65
82187;BME280;71776;52.042;8.160;2023-07-29T04:47:59;99885.88;;;19.48;82.42
82187;BME280;71776;52.042;8.160;2023-07-29T04:50:24;99889.88;;;19.55;82.29
82187;BME280;71776;52.042;8.160;2023-07-29T04:52:50;99891.22;;;19.62;81.90
82187;BME280;71776;52.042;8.160;2023-07-29T04:55:17;99888.19;;;19.70;81.33
82187;BME280;71776;52.042;8.160;2023-07-29T04:57:42;99896.19;;;19.68;81.58
82187;BME280;71776;52.042;8.160;2023-07-29T05:00:08;99896.25;;;19.82;81.11
82187;BME280;71776;52.042;8.160;2023-07-29T05:02:34;99887.19;;;19.88;80.66
82187;BME280;71776;52.042;8.160;2023-07-29T05:05:05;99885.44;;;19.88;80.70
82187;BME280;71776;52.042;8.160;2023-07-29T05:07:30;99879.06;;;19.92;81.08
82187;BME280;71776;52.042;8.160;2023-07-29T05:09:57;99878.47;;;20.03;80.25
82187;BME280;71776;52.042;8.160;2023-07-29T05:12:22;99881.59;;;20.09;80.21
82187;BME280;71776;52.042;8.160;2023-07-29T05:14:48;99880.16;;;20.19;79.67
82187;BME280;71776;52.042;8.160;2023-07-29T05:17:13;99875.16;;;20.15;79.82
82187;BME280;71776;52.042;8.160;2023-07-29T05:19:39;99873.94;;;20.20;79.97
82187;BME280;71776;52.042;8.160;2023-07-29T05:22:06;99865.47;;;20.15;80.26
82187;BME280;71776;52.042;8.160;2023-07-29T05:24:31;99864.41;;;20.04;80.67
82187;BME280;71776;52.042;8.160;2023-07-29T05:26:57;99862.59;;;20.04;80.60
82187;BME280;71776;52.042;8.160;2023-07-29T05:29:22;99857.00;;;20.10;80.33
82187;BME280;71776;52.042;8.160;2023-07-29T05:31:48;99857.31;;;20.20;80.25
82187;BME280;71776;52.042;8.160;2023-07-29T05:34:13;99855.31;;;20.25;80.11
82187;BME280;71776;52.042;8.160;2023-07-29T05:36:39;99851.50;;;20.30;79.65
82187;BME280;71776;52.042;8.160;2023-07-29T05:39:05;99847.47;;;20.39;79.50
82187;BME280;71776;52.042;8.160;2023-07-29T05:41:31;99858.00;;;20.39;79.46
82187;BME280;71776;52.042;8.160;2023-07-29T05:43:56;99860.97;;;20.49;78.80
82187;BME280;71776;52.042;8.160;2023-07-29T05:46:22;99863.75;;;20.46;79.50
82187;BME280;71776;52.042;8.160;2023-07-29T05:48:47;99867.63;;;20.54;78.84
82187;BME280;71776;52.042;8.160;2023-07-29T05:51:13;99877.63;;;20.63;78.95
82187;BME280;71776;52.042;8.160;2023-07-29T05:53:38;99885.44;;;20.65;78.90
82187;BME280;71776;52.042;8.160;2023-07-29T05:56:05;99889.03;;;20.64;78.58
82187;BME280;71776;52.042;8.160;2023-07-29T05:58:31;99892.78;;;20.60;78.36
82187;BME280;71776;52.042;8.160;2023-07-29T06:00:57;99900.03;;;20.70;78.45
82187;BME280;71776;52.042;8.160;2023-07-29T06:03:22;99901.50;;;20.90;77.39
82187;BME280;71776;52.042;8.160;2023-07-29T06:05:48;99897.59;;;20.52;78.84
82187;BME280;71776;52.042;8.160;2023-07-29T06:08:14;99905.34;;;20.55;79.08
82187;BME280;71776;52.042;8.160;2023-07-29T06:10:40;99899.94;;;20.72;78.24
82187;BME280;71776;52.042;8.160;2023-07-29T06:13:07;99903.41;;;20.72;78.62
82187;BME280;71776;52.042;8.160;2023-07-29T06:15:32;99893.25;;;20.66;78.80
82187;BME280;71776;52.042;8.160;2023-07-29T06:17:58;99890.78;;;20.63;78.69
82187;BME280;71776;52.042;8.160;2023-07-29T06:20:23;99877.84;;;20.45;79.48
82187;BME280;71776;52.042;8.160;2023-07-29T06:22:49;99872.25;;;20.51;80.21
82187;BME280;71776;52.042;8.160;2023-07-29T06:25:14;99868.00;;;20.48;80.63
82187;BME280;71776;52.042;8.160;2023-07-29T06:27:40;99860.97;;;20.49;81.50
82187;BME280;71776;52.042;8.160;2023-07-29T06:30:08;99871.50;;;20.49;80.90
82187;BME280;71776;52.042;8.160;2023-07-29T06:32:34;99873.94;;;20.52;80.40
82187;BME280;71776;52.042;8.160;2023-07-29T06:35:00;99878.53;;;20.78;79.69
82187;BME280;71776;52.042;8.160;2023-07-29T06:37:25;99885.91;;;20.71;80.11
82187;BME280;71776;52.042;8.160;2023-07-29T06:39:51;99883.81;;;20.78;79.04
82187;BME280;71776;52.042;8.160;2023-07-29T06:42:16;99895.69;;;20.99;77.97
82187;BME280;71776;52.042;8.160;2023-07-29T06:44:42;99910.16;;;20.92;78.81
82187;BME280;71776;52.042;8.160;2023-07-29T06:47:09;99921.63;;;20.91;78.69
82187;BME280;71776;52.042;8.160;2023-07-29T06:49:34;99913.16;;;20.86;78.32
82187;BME280;71776;52.042;8.160;2023-07-29T06:52:00;99916.97;;;20.80;78.94
82187;BME280;71776;52.042;8.160;2023-07-29T06:54:26;99918.38;;;20.72;78.53
82187;BME280;71776;52.042;8.160;2023-07-29T06:56:52;99917.97;;;20.93;77.42
82187;BME280;71776;52.042;8.160;2023-07-29T06:59:17;99917.78;;;20.67;77.87
82187;BME280;71776;52.042;8.160;2023-07-29T07:01:43;99927.97;;;20.73;77.37
82187;BME280;71776;52.042;8.160;2023-07-29T07:04:10;99929.25;;;21.11;76.14
82187;BME280;71776;52.042;8.160;2023-07-29T07:06:35;99909.38;;;21.05;75.78
82187;BME280;71776;52.042;8.160;2023-07-29T07:09:01;99932.75;;;21.26;74.94
82187;BME280;71776;52.042;8.160;2023-07-29T07:11:26;99930.41;;;21.35;73.91
82187;BME280;71776;52.042;8.160;2023-07-29T07:13:52;99933.13;;;21.48;73.92
82187;BME280;71776;52.042;8.160;2023-07-29T07:16:17;99939.72;;;21.41;73.68
82187;BME280;71776;52.042;8.160;2023-07-29T07:18:43;99943.41;;;21.52;73.80
82187;BME280;71776;52.042;8.160;2023-07-29T07:21:10;99937.41;;;21.64;72.86
82187;BME280;71776;52.042;8.160;2023-07-29T07:23:35;99942.84;;;21.90;71.25
82187;BME280;71776;52.042;8.160;2023-07-29T07:26:01;99940.41;;;21.72;71.80
82187;BME280;71776;52.042;8.160;2023-07-29T07:28:27;99939.81;;;22.10;70.63
82187;BME280;71776;52.042;8.160;2023-07-29T07:30:52;99944.66;;;22.30;70.01
82187;BME280;71776;52.042;8.160;2023-07-29T07:33:18;99933.38;;;23.20;66.14
82187;BME280;71776;52.042;8.160;2023-07-29T07:35:43;99933.94;;;23.51;64.67
82187;BME280;71776;52.042;8.160;2023-07-29T07:38:11;99933.59;;;24.06;62.77
82187;BME280;71776;52.042;8.160;2023-07-29T07:40:36;99925.19;;;24.12;62.00
82187;BME280;71776;52.042;8.160;2023-07-29T07:43:02;99921.81;;;24.10;61.75
82187;BME280;71776;52.042;8.160;2023-07-29T07:45:27;99936.16;;;23.57;63.06
82187;BME280;71776;52.042;8.160;2023-07-29T07:47:53;99931.47;;;23.73;62.50
82187;BME280;71776;52.042;8.160;2023-07-29T07:50:18;99933.97;;;24.00;61.52
82187;BME280;71776;52.042;8.160;2023-07-29T07:52:44;99930.22;;;23.78;61.49
82187;BME280;71776;52.042;8.160;2023-07-29T07:55:11;99924.81;;;23.92;61.22
82187;BME280;71776;52.042;8.160;2023-07-29T07:57:37;99927.44;;;24.05;61.15
82187;BME280;71776;52.042;8.160;2023-07-29T08:00:03;99936.84;;;23.84;58.01
82187;BME280;71776;52.042;8.160;2023-07-29T08:02:29;99929.72;;;23.61;57.56
82187;BME280;71776;52.042;8.160;2023-07-29T08:04:56;99935.00;;;23.36;58.49
82187;BME280;71776;52.042;8.160;2023-07-29T08:07:21;99934.53;;;23.29;58.92
82187;BME280;71776;52.042;8.160;2023-07-29T08:09:47;99941.31;;;23.46;58.15
82187;BME280;71776;52.042;8.160;2023-07-29T08:12:14;99938.44;;;23.23;59.07
82187;BME280;71776;52.042;8.160;2023-07-29T08:14:40;99942.09;;;23.08;58.82
82187;BME280;71776;52.042;8.160;2023-07-29T08:17:06;99951.59;;;23.38;58.39
82187;BME280;71776;52.042;8.160;2023-07-29T08:19:31;99951.88;;;23.20;58.37
82187;BME280;71776;52.042;8.160;2023-07-29T08:21:57;99952.53;;;23.87;56.46
82187;BME280;71776;52.042;8.160;2023-07-29T08:24:23;99940.47;;;23.83;56.79
82187;BME280;71776;52.042;8.160;2023-07-29T08:26:48;99949.25;;;23.71;55.13
82187;BME280;71776;52.042;8.160;2023-07-29T08:29:15;99960.47;;;23.87;52.92
82187;BME280;71776;52.042;8.160;2023-07-29T08:31:41;99962.91;;;23.40;53.71
82187;BME280;71776;52.042;8.160;2023-07-29T08:34:06;99967.56;;;23.49;53.73
82187;BME280;71776;52.042;8.160;2023-07-29T08:36:32;99959.97;;;23.57;53.32
82187;BME280;71776;52.042;8.160;2023-07-29T08:38:57;99961.31;;;23.62;53.70
82187;BME280;71776;52.042;8.160;2023-07-29T08:41:25;99953.38;;;23.75;53.70
82187;BME280;71776;52.042;8.160;2023-07-29T08:43:56;99956.97;;;23.86;53.84
82187;BME280;71776;52.042;8.160;2023-07-29T08:46:26;99955.66;;;24.17;52.69
82187;BME280;71776;52.042;8.160;2023-07-29T08:48:55;99948.75;;;24.27;52.82
82187;BME280;71776;52.042;8.160;2023-07-29T08:51:21;99945.56;;;25.06;50.95
82187;BME280;71776;52.042;8.160;2023-07-29T08:53:49;99937.88;;;24.67;51.14
82187;BME280;71776;52.042;8.160;2023-07-29T08:56:14;99938.78;;;24.91;48.91
82187;BME280;71776;52.042;8.160;2023-07-29T08:58:40;99949.41;;;24.54;50.39
82187;BME280;71776;52.042;8.160;2023-07-29T09:01:06;99939.66;;;24.79;50.14
82187;BME280;71776;52.042;8.160;2023-07-29T09:03:33;99936.50;;;24.97;49.73
82187;BME280;71776;52.042;8.160;2023-07-29T09:05:59;99941.50;;;24.89;49.73
82187;BME280;71776;52.042;8.160;2023-07-29T09:08:27;99944.44;;;24.74;49.76
82187;BME280;71776;52.042;8.160;2023-07-29T09:10:53;99942.59;;;24.87;50.80
82187;BME280;71776;52.042;8.160;2023-07-29T09:13:19;99934.47;;;25.12;50.28
82187;BME280;71776;52.042;8.160;2023-07-29T09:15:45;99931.38;;;24.83;50.76
82187;BME280;71776;52.042;8.160;2023-07-29T09:18:13;99942.50;;;24.88;49.54
82187;BME280;71776;52.042;8.160;2023-07-29T09:20:41;99947.00;;;24.75;50.41
82187;BME280;71776;52.042;8.160;2023-07-29T09:23:08;99947.16;;;24.61;50.76
82187;BME280;71776;52.042;8.160;2023-07-29T09:25:34;99953.09;;;24.28;53.06
82187;BME280;71776;52.042;8.160;2023-07-29T09:28:00;99944.63;;;24.59;51.79
82187;BME280;71776;52.042;8.160;2023-07-29T09:30:26;99942.91;;;24.35;51.58
82187;BME280;71776;52.042;8.160;2023-07-29T09:32:55;99952.06;;;24.18;51.78
82187;BME280;71776;52.042;8.160;2023-07-29T09:35:20;99956.63;;;24.04;52.43
82187;BME280;71776;52.042;8.160;2023-07-29T09:37:47;99958.63;;;24.00;52.84
82187;BME280;71776;52.042;8.160;2023-07-29T09:40:14;99951.88;;;24.09;52.64
82187;BME280;71776;52.042;8.160;2023-07-29T09:42:39;99951.63;;;24.24;53.23
82187;BME280;71776;52.042;8.160;2023-07-29T09:45:06;99958.09;;;24.56;52.06
82187;BME280;71776;52.042;8.160;2023-07-29T09:47:31;99948.81;;;25.09;51.04
82187;BME280;71776;52.042;8.160;2023-07-29T09:49:57;99950.00;;;25.51;50.43
82187;BME280;71776;52.042;8.160;2023-07-29T09:52:23;99947.41;;;25.84;48.15
82187;BME280;71776;52.042;8.160;2023-07-29T09:54:50;99940.03;;;25.99;48.27
82187;BME280;71776;52.042;8.160;2023-07-29T09:57:16;99940.88;;;25.66;48.32
82187;BME280;71776;52.042;8.160;2023-07-29T09:59:43;99940.63;;;25.58;48.37
82187;BME280;71776;52.042;8.160;2023-07-29T10:02:18;99949.91;;;25.64;48.46
82187;BME280;71776;52.042;8.160;2023-07-29T10:04:45;99941.38;;;25.93;48.60
82187;BME280;71776;52.042;8.160;2023-07-29T10:07:12;99947.88;;;26.12;48.00
82187;BME280;71776;52.042;8.160;2023-07-29T10:09:37;99946.19;;;26.11;47.30
82187;BME280;71776;52.042;8.160;2023-07-29T10:12:07;99943.66;;;26.20;48.94
82187;BME280;71776;52.042;8.160;2023-07-29T10:14:32;99943.63;;;25.98;48.39
82187;BME280;71776;52.042;8.160;2023-07-29T10:16:59;99943.63;;;25.98;48.07
82187;BME280;71776;52.042;8.160;2023-07-29T10:19:25;99952.25;;;25.33;50.16
82187;BME280;71776;52.042;8.160;2023-07-29T10:21:51;99946.97;;;25.45;47.68
82187;BME280;71776;52.042;8.160;2023-07-29T10:24:19;99948.81;;;25.44;48.22
82187;BME280;71776;52.042;8.160;2023-07-29T10:26:49;99950.91;;;25.28;48.27
82187;BME280;71776;52.042;8.160;2023-07-29T10:29:18;99955.22;;;25.18;50.06
82187;BME280;71776;52.042;8.160;2023-07-29T10:31:45;99956.75;;;25.09;54.30
82187;BME280;71776;52.042;8.160;2023-07-29T10:34:11;99952.50;;;25.42;50.33
82187;BME280;71776;52.042;8.160;2023-07-29T10:36:39;99950.63;;;25.44;48.71
82187;BME280;71776;52.042;8.160;2023-07-29T10:39:06;99957.97;;;25.51;48.79
82187;BME280;71776;52.042;8.160;2023-07-29T10:41:56;99954.38;;;25.74;47.49
82187;BME280;71776;52.042;8.160;2023-07-29T10:44:51;99958.72;;;25.97;47.01
82187;BME280;71776;52.042;8.160;2023-07-29T10:47:18;99947.75;;;26.02;46.80
82187;BME280;71776;52.042;8.160;2023-07-29T10:49:51;99950.06;;;25.84;47.22
82187;BME280;71776;52.042;8.160;2023-07-29T10:52:28;99953.53;;;25.85;47.49
82187;BME280;71776;52.042;8.160;2023-07-29T10:54:53;99947.97;;;25.55;47.24
82187;BME280;71776;52.042;8.160;2023-07-29T10:57:30;99947.75;;;25.58;47.44
82187;BME280;71776;52.042;8.160;2023-07-29T10:59:57;99949.41;;;25.59;47.49
82187;BME280;71776;52.042;8.160;2023-07-29T11:02:29;99954.44;;;25.40;48.27
82187;BME280;71776;52.042;8.160;2023-07-29T11:04:55;99944.97;;;25.81;48.25
82187;BME280;71776;52.042;8.160;2023-07-29T11:07:21;99951.00;;;26.17;47.09
82187;BME280;71776;52.042;8.160;2023-07-29T11:09:53;99942.53;;;26.34;47.54
82187;BME280;71776;52.042;8.160;2023-07-29T11:12:34;99938.72;;;26.58;46.55
82187;BME280;71776;52.042;8.160;2023-07-29T11:15:04;99931.44;;;26.29;46.76
82187;BME280;71776;52.042;8.160;2023-07-29T11:17:32;99936.84;;;26.27;46.62
82187;BME280;71776;52.042;8.160;2023-07-29T11:20:00;99939.38;;;26.40;47.19
82187;BME280;71776;52.042;8.160;2023-07-29T11:22:25;99932.19;;;25.86;47.95
82187;BME280;71776;52.042;8.160;2023-07-29T11:24:51;99922.66;;;25.95;47.68
82187;BME280;71776;52.042;8.160;2023-07-29T11:27:16;99920.84;;;25.95;47.91
82187;BME280;71776;52.042;8.160;2023-07-29T11:29:42;99909.13;;;25.98;47.87
82187;BME280;71776;52.042;8.160;2023-07-29T11:32:09;99916.28;;;25.86;46.71
82187;BME280;71776;52.042;8.160;2023-07-29T11:34:35;99911.53;;;26.12;47.16
82187;BME280;71776;52.042;8.160;2023-07-29T11:37:00;99911.50;;;26.34;46.76
82187;BME280;71776;52.042;8.160;2023-07-29T11:39:26;99917.47;;;26.16;46.02
82187;BME280;71776;52.042;8.160;2023-07-29T11:41:51;99917.56;;;26.14;46.08
82187;BME280;71776;52.042;8.160;2023-07-29T11:44:18;99922.16;;;25.90;46.32
82187;BME280;71776;52.042;8.160;2023-07-29T11:46:45;99920.09;;;25.71;47.36
82187;BME280;71776;52.042;8.160;2023-07-29T11:49:12;99924.69;;;26.02;47.29
82187;BME280;71776;52.042;8.160;2023-07-29T11:51:41;99916.16;;;26.53;47.11
82187;BME280;71776;52.042;8.160;2023-07-29T11:54:08;99915.66;;;26.59;46.32
82187;BME280;71776;52.042;8.160;2023-07-29T11:56:33;99912.75;;;26.62;46.48
82187;BME280;71776;52.042;8.160;2023-07-29T11:58:59;99906.50;;;26.84;46.01
82187;BME280;71776;52.042;8.160;2023-07-29T12:01:25;99912.94;;;27.02;46.23
82187;BME280;71776;52.042;8.160;2023-07-29T12:03:51;99915.06;;;26.55;46.78
82187;BME280;71776;52.042;8.160;2023-07-29T12:06:18;99911.13;;;26.82;46.18
82187;BME280;71776;52.042;8.160;2023-07-29T12:08:44;99924.81;;;26.66;46.50
82187;BME280;71776;52.042;8.160;2023-07-29T12:11:10;99930.84;;;26.68;45.90
82187;BME280;71776;52.042;8.160;2023-07-29T12:13:36;99926.94;;;26.29;46.62
82187;BME280;71776;52.042;8.160;2023-07-29T12:16:02;99927.22;;;26.04;47.29
82187;BME280;71776;52.042;8.160;2023-07-29T12:18:29;99934.09;;;26.07;47.35
82187;BME280;71776;52.042;8.160;2023-07-29T12:20:55;99929.06;;;25.81;48.09
82187;BME280;71776;52.042;8.160;2023-07-29T12:23:25;99935.28;;;26.02;47.20
82187;BME280;71776;52.042;8.160;2023-07-29T12:25:51;99924.81;;;26.12;47.89
82187;BME280;71776;52.042;8.160;2023-07-29T12:28:17;99933.06;;;26.52;46.75
82187;BME280;71776;52.042;8.160;2023-07-29T12:30:42;99932.53;;;26.26;47.34
82187;BME280;71776;52.042;8.160;2023-07-29T12:33:08;99942.09;;;26.18;46.85
82187;BME280;71776;52.042;8.160;2023-07-29T12:35:35;99935.22;;;25.82;47.21
82187;BME280;71776;52.042;8.160;2023-07-29T12:38:01;99943.25;;;25.58;47.39
82187;BME280;71776;52.042;8.160;2023-07-29T12:40:28;99937.72;;;25.61;47.51
82187;BME280;71776;52.042;8.160;2023-07-29T12:42:54;99935.56;;;25.44;48.29
82187;BME280;71776;52.042;8.160;2023-07-29T12:45:19;99927.25;;;25.49;48.42
82187;BME280;71776;52.042;8.160;2023-07-29T12:47:45;99930.75;;;25.93;49.14
82187;BME280;71776;52.042;8.160;2023-07-29T12:50:10;99915.06;;;26.13;48.27
82187;BME280;71776;52.042;8.160;2023-07-29T12:52:36;99924.63;;;26.47;47.19
82187;BME280;71776;52.042;8.160;2023-07-29T12:55:01;99919.53;;;26.55;47.53
82187;BME280;71776;52.042;8.160;2023-07-29T12:57:28;99916.72;;;26.56;47.80